sensor_id;sensor_type;location;lat;lon;timestamp;P1;durP1;ratioP1;P2;durP2;ratioP2
16426;SDS011;8322;-33.900;151.170;2022-07-04T00:00:33;16.90;;;2.80;;
16426;SDS011;8322;-33.900;151.170;2022-07-04T00:03:05;15.82;;;2.67;;
16426;SDS011;8322;-33.900;151.170;2022-07-04T00:05:35;15.48;;;2.58;;
16426;SDS011;8322;-33.900;151.170;2022-07-04T00:08:04;14.70;;;2.60;;
16426;SDS011;8322;-33.900;151.170;2022-07-04T00:10:34;15.52;;;2.92;;
16426;SDS011;8322;-33.900;151.170;2022-07-04T00:13:04;11.32;;;2.70;;
16426;SDS011;8322;-33.900;151.170;2022-07-04T00:15:34;11.68;;;2.50;;
16426;SDS011;8322;-33.900;151.170;2022-07-04T00:18:05;12.25;;;2.13;;
16426;SDS011;8322;-33.900;151.170;2022-07-04T00:20:35;15.90;;;2.80;;
16426;SDS011;8322;-33.900;151.170;2022-07-04T00:23:05;12.93;;;2.85;;
16426;SDS011;8322;-33.900;151.170;2022-07-04T00:25:34;18.52;;;2.60;;
16426;SDS011;8322;-33.900;151.170;2022-07-04T00:28:04;17.17;;;2.88;;
16426;SDS011;8322;-33.900;151.170;2022-07-04T00:30:34;18.40;;;3.20;;
16426;SDS011;8322;-33.900;151.170;2022-07-04T00:33:06;17.42;;;2.70;;
16426;SDS011;8322;-33.900;151.170;2022-07-04T00:35:40;20.67;;;2.90;;
16426;SDS011;8322;-33.900;151.170;2022-07-04T00:38:10;15.10;;;2.85;;
16426;SDS011;8322;-33.900;151.170;2022-07-04T00:40:39;16.60;;;2.95;;
16426;SDS011;8322;-33.900;151.170;2022-07-04T00:43:09;20.17;;;3.13;;
16426;SDS011;8322;-33.900;151.170;2022-07-04T00:45:39;18.63;;;2.90;;
16426;SDS011;8322;-33.900;151.170;2022-07-04T00:48:10;15.52;;;2.67;;
16426;SDS011;8322;-33.900;151.170;2022-07-04T00:50:41;19.92;;;2.80;;
16426;SDS011;8322;-33.900;151.170;2022-07-04T00:53:11;15.43;;;2.40;;
16426;SDS011;8322;-33.900;151.170;2022-07-04T00:55:42;15.70;;;2.40;;
16426;SDS011;8322;-33.900;151.170;2022-07-04T00:58:11;12.35;;;2.70;;
16426;SDS011;8322;-33.900;151.170;2022-07-04T01:00:42;26.88;;;4.18;;
16426;SDS011;8322;-33.900;151.170;2022-07-04T01:03:13;25.13;;;3.25;;
16426;SDS011;8322;-33.900;151.170;2022-07-04T01:05:43;18.25;;;3.10;;
16426;SDS011;8322;-33.900;151.170;2022-07-04T01:08:13;25.27;;;3.53;;
16426;SDS011;8322;-33.900;151.170;2022-07-04T01:10:44;21.70;;;3.33;;
16426;SDS011;8322;-33.900;151.170;2022-07-04T01:13:22;18.88;;;2.83;;
16426;SDS011;8322;-33.900;151.170;2022-07-04T01:15:52;20.63;;;2.75;;
16426;SDS011;8322;-33.900;151.170;2022-07-04T01:18:24;21.30;;;3.45;;
16426;SDS011;8322;-33.900;151.170;2022-07-04T01:20:56;23.02;;;3.10;;
16426;SDS011;8322;-33.900;151.170;2022-07-04T01:23:26;15.15;;;2.90;;
16426;SDS011;8322;-33.900;151.170;2022-07-04T01:25:56;15.90;;;2.90;;
16426;SDS011;8322;-33.900;151.170;2022-07-04T01:28:26;14.77;;;3.28;;
16426;SDS011;8322;-33.900;151.170;2022-07-04T01:30:55;17.08;;;3.40;;
16426;SDS011;8322;-33.900;151.170;2022-07-04T01:33:25;21.38;;;3.20;;
16426;SDS011;8322;-33.900;151.170;2022-07-04T01:35:57;21.75;;;3.83;;
16426;SDS011;8322;-33.900;151.170;2022-07-04T01:38:27;26.70;;;3.25;;
16426;SDS011;8322;-33.900;151.170;2022-07-04T01:40:56;23.83;;;3.15;;
16426;SDS011;8322;-33.900;151.170;2022-07-04T01:43:26;17.27;;;2.83;;
16426;SDS011;8322;-33.900;151.170;2022-07-04T01:45:56;19.35;;;2.90;;
16426;SDS011;8322;-33.900;151.170;2022-07-04T01:48:26;27.55;;;4.40;;
16426;SDS011;8322;-33.900;151.170;2022-07-04T01:50:57;21.15;;;3.83;;
16426;SDS011;8322;-33.900;151.170;2022-07-04T01:53:27;27.27;;;3.60;;
16426;SDS011;8322;-33.900;151.170;2022-07-04T01:55:56;21.65;;;3.70;;
16426;SDS011;8322;-33.900;151.170;2022-07-04T01:58:29;19.08;;;3.60;;
16426;SDS011;8322;-33.900;151.170;2022-07-04T02:00:59;24.02;;;3.70;;
16426;SDS011;8322;-33.900;151.170;2022-07-04T02:03:45;22.95;;;3.78;;
16426;SDS011;8322;-33.900;151.170;2022-07-04T02:06:16;21.30;;;3.53;;
16426;SDS011;8322;-33.900;151.170;2022-07-04T02:08:46;26.30;;;4.32;;
16426;SDS011;8322;-33.900;151.170;2022-07-04T02:11:32;28.35;;;3.92;;
16426;SDS011;8322;-33.900;151.170;2022-07-04T02:14:15;30.98;;;4.32;;
16426;SDS011;8322;-33.900;151.170;2022-07-04T02:16:44;24.95;;;3.95;;
16426;SDS011;8322;-33.900;151.170;2022-07-04T02:19:14;25.83;;;3.45;;
16426;SDS011;8322;-33.900;151.170;2022-07-04T02:21:46;26.73;;;4.20;;
16426;SDS011;8322;-33.900;151.170;2022-07-04T02:24:15;33.20;;;4.25;;
16426;SDS011;8322;-33.900;151.170;2022-07-04T02:26:45;36.28;;;4.95;;
16426;SDS011;8322;-33.900;151.170;2022-07-04T02:29:15;29.30;;;4.32;;
16426;SDS011;8322;-33.900;151.170;2022-07-04T02:31:45;27.70;;;3.92;;
16426;SDS011;8322;-33.900;151.170;2022-07-04T02:34:14;23.15;;;3.88;;
16426;SDS011;8322;-33.900;151.170;2022-07-04T02:36:46;25.60;;;3.90;;
16426;SDS011;8322;-33.900;151.170;2022-07-04T02:39:16;25.20;;;3.53;;
16426;SDS011;8322;-33.900;151.170;2022-07-04T02:41:45;20.40;;;3.38;;
16426;SDS011;8322;-33.900;151.170;2022-07-04T02:44:15;21.25;;;3.40;;
16426;SDS011;8322;-33.900;151.170;2022-07-04T02:46:45;17.20;;;3.25;;
16426;SDS011;8322;-33.900;151.170;2022-07-04T02:49:15;18.77;;;3.25;;
16426;SDS011;8322;-33.900;151.170;2022-07-04T02:51:47;14.43;;;2.67;;
16426;SDS011;8322;-33.900;151.170;2022-07-04T02:54:17;21.17;;;2.70;;
16426;SDS011;8322;-33.900;151.170;2022-07-04T02:56:46;23.50;;;3.15;;
16426;SDS011;8322;-33.900;151.170;2022-07-04T02:59:16;25.48;;;2.97;;
16426;SDS011;8322;-33.900;151.170;2022-07-04T03:01:46;22.40;;;3.03;;
16426;SDS011;8322;-33.900;151.170;2022-07-04T03:04:15;16.13;;;2.72;;
16426;SDS011;8322;-33.900;151.170;2022-07-04T03:06:47;17.67;;;2.60;;
16426;SDS011;8322;-33.900;151.170;2022-07-04T03:09:17;13.00;;;2.40;;
16426;SDS011;8322;-33.900;151.170;2022-07-04T03:11:46;22.30;;;3.28;;
16426;SDS011;8322;-33.900;151.170;2022-07-04T03:14:16;23.02;;;3.70;;
16426;SDS011;8322;-33.900;151.170;2022-07-04T03:16:46;24.55;;;3.65;;
16426;SDS011;8322;-33.900;151.170;2022-07-04T03:19:15;20.92;;;4.25;;
16426;SDS011;8322;-33.900;151.170;2022-07-04T03:21:47;26.63;;;3.58;;
16426;SDS011;8322;-33.900;151.170;2022-07-04T03:24:17;18.45;;;2.85;;
16426;SDS011;8322;-33.900;151.170;2022-07-04T03:26:46;14.13;;;2.45;;
16426;SDS011;8322;-33.900;151.170;2022-07-04T03:29:16;12.45;;;2.22;;
16426;SDS011;8322;-33.900;151.170;2022-07-04T03:31:46;12.85;;;2.50;;
16426;SDS011;8322;-33.900;151.170;2022-07-04T03:34:15;11.60;;;2.10;;
16426;SDS011;8322;-33.900;151.170;2022-07-04T03:36:47;9.77;;;2.00;;
16426;SDS011;8322;-33.900;151.170;2022-07-04T03:39:16;10.82;;;2.03;;
16426;SDS011;8322;-33.900;151.170;2022-07-04T03:41:46;10.25;;;2.13;;
16426;SDS011;8322;-33.900;151.170;2022-07-04T03:44:16;12.60;;;2.10;;
16426;SDS011;8322;-33.900;151.170;2022-07-04T03:46:45;17.25;;;3.15;;
16426;SDS011;8322;-33.900;151.170;2022-07-04T03:49:15;13.20;;;2.40;;
16426;SDS011;8322;-33.900;151.170;2022-07-04T03:51:47;13.00;;;3.00;;
16426;SDS011;8322;-33.900;151.170;2022-07-04T03:54:16;14.80;;;2.42;;
16426;SDS011;8322;-33.900;151.170;2022-07-04T03:56:46;12.07;;;2.47;;
16426;SDS011;8322;-33.900;151.170;2022-07-04T03:59:16;17.65;;;3.03;;
16426;SDS011;8322;-33.900;151.170;2022-07-04T04:01:45;10.88;;;2.50;;
16426;SDS011;8322;-33.900;151.170;2022-07-04T04:04:15;14.10;;;2.75;;
16426;SDS011;8322;-33.900;151.170;2022-07-04T04:07:03;13.40;;;3.13;;
16426;SDS011;8322;-33.900;151.170;2022-07-04T04:09:32;20.85;;;3.17;;
16426;SDS011;8322;-33.900;151.170;2022-07-04T04:12:02;19.33;;;3.38;;
16426;SDS011;8322;-33.900;151.170;2022-07-04T04:14:32;14.73;;;2.53;;
16426;SDS011;8322;-33.900;151.170;2022-07-04T04:17:02;14.32;;;2.50;;
16426;SDS011;8322;-33.900;151.170;2022-07-04T04:19:31;19.63;;;3.22;;
16426;SDS011;8322;-33.900;151.170;2022-07-04T04:22:03;16.20;;;2.42;;
16426;SDS011;8322;-33.900;151.170;2022-07-04T04:24:33;19.80;;;3.10;;
16426;SDS011;8322;-33.900;151.170;2022-07-04T04:27:03;21.02;;;3.40;;
16426;SDS011;8322;-33.900;151.170;2022-07-04T04:29:33;14.82;;;2.90;;
16426;SDS011;8322;-33.900;151.170;2022-07-04T04:32:03;14.82;;;2.78;;
16426;SDS011;8322;-33.900;151.170;2022-07-04T04:34:32;15.93;;;2.22;;
16426;SDS011;8322;-33.900;151.170;2022-07-04T04:37:04;17.75;;;2.75;;
16426;SDS011;8322;-33.900;151.170;2022-07-04T04:39:34;16.17;;;2.92;;
16426;SDS011;8322;-33.900;151.170;2022-07-04T04:42:04;20.48;;;3.58;;
16426;SDS011;8322;-33.900;151.170;2022-07-04T04:44:34;19.90;;;3.15;;
16426;SDS011;8322;-33.900;151.170;2022-07-04T04:47:04;21.15;;;3.78;;
16426;SDS011;8322;-33.900;151.170;2022-07-04T04:49:33;20.02;;;3.20;;
16426;SDS011;8322;-33.900;151.170;2022-07-04T04:52:05;31.58;;;4.28;;
16426;SDS011;8322;-33.900;151.170;2022-07-04T04:54:35;23.25;;;3.28;;
16426;SDS011;8322;-33.900;151.170;2022-07-04T04:57:05;19.05;;;3.10;;
16426;SDS011;8322;-33.900;151.170;2022-07-04T04:59:34;23.25;;;3.28;;
16426;SDS011;8322;-33.900;151.170;2022-07-04T05:02:04;21.60;;;3.13;;
16426;SDS011;8322;-33.900;151.170;2022-07-04T05:04:34;19.50;;;3.40;;
16426;SDS011;8322;-33.900;151.170;2022-07-04T05:07:05;20.55;;;3.50;;
16426;SDS011;8322;-33.900;151.170;2022-07-04T05:09:35;20.55;;;3.30;;
16426;SDS011;8322;-33.900;151.170;2022-07-04T05:12:05;27.50;;;3.83;;
16426;SDS011;8322;-33.900;151.170;2022-07-04T05:14:35;26.20;;;4.18;;
16426;SDS011;8322;-33.900;151.170;2022-07-04T05:17:04;24.27;;;3.28;;
16426;SDS011;8322;-33.900;151.170;2022-07-04T05:19:34;19.20;;;2.80;;
16426;SDS011;8322;-33.900;151.170;2022-07-04T05:22:06;26.23;;;4.35;;
16426;SDS011;8322;-33.900;151.170;2022-07-04T05:24:36;16.17;;;2.60;;
16426;SDS011;8322;-33.900;151.170;2022-07-04T05:27:06;22.52;;;2.83;;
16426;SDS011;8322;-33.900;151.170;2022-07-04T05:29:36;19.10;;;3.17;;
16426;SDS011;8322;-33.900;151.170;2022-07-04T05:32:06;23.98;;;3.25;;
16426;SDS011;8322;-33.900;151.170;2022-07-04T05:34:36;17.65;;;3.00;;
16426;SDS011;8322;-33.900;151.170;2022-07-04T05:37:07;17.95;;;3.10;;
16426;SDS011;8322;-33.900;151.170;2022-07-04T05:39:37;20.25;;;3.30;;
16426;SDS011;8322;-33.900;151.170;2022-07-04T05:42:07;20.10;;;2.92;;
16426;SDS011;8322;-33.900;151.170;2022-07-04T05:44:37;14.10;;;3.17;;
16426;SDS011;8322;-33.900;151.170;2022-07-04T05:47:06;22.83;;;2.78;;
16426;SDS011;8322;-33.900;151.170;2022-07-04T05:49:36;22.77;;;3.03;;
16426;SDS011;8322;-33.900;151.170;2022-07-04T05:52:08;22.75;;;3.25;;
16426;SDS011;8322;-33.900;151.170;2022-07-04T05:54:37;19.73;;;3.15;;
16426;SDS011;8322;-33.900;151.170;2022-07-04T05:57:07;24.25;;;2.65;;
16426;SDS011;8322;-33.900;151.170;2022-07-04T05:59:37;21.05;;;2.72;;
16426;SDS011;8322;-33.900;151.170;2022-07-04T06:02:07;20.35;;;3.17;;
16426;SDS011;8322;-33.900;151.170;2022-07-04T06:04:36;20.98;;;2.60;;
16426;SDS011;8322;-33.900;151.170;2022-07-04T06:07:08;13.85;;;2.17;;
16426;SDS011;8322;-33.900;151.170;2022-07-04T06:09:38;16.92;;;2.83;;
16426;SDS011;8322;-33.900;151.170;2022-07-04T06:12:07;13.68;;;2.20;;
16426;SDS011;8322;-33.900;151.170;2022-07-04T06:14:37;15.52;;;2.63;;
16426;SDS011;8322;-33.900;151.170;2022-07-04T06:17:07;13.80;;;2.65;;
16426;SDS011;8322;-33.900;151.170;2022-07-04T06:19:36;14.18;;;2.60;;
16426;SDS011;8322;-33.900;151.170;2022-07-04T06:22:08;14.80;;;2.45;;
16426;SDS011;8322;-33.900;151.170;2022-07-04T06:24:38;20.08;;;2.67;;
16426;SDS011;8322;-33.900;151.170;2022-07-04T06:27:08;14.90;;;2.42;;
16426;SDS011;8322;-33.900;151.170;2022-07-04T06:29:38;10.52;;;2.20;;
16426;SDS011;8322;-33.900;151.170;2022-07-04T06:32:08;12.40;;;2.47;;
16426;SDS011;8322;-33.900;151.170;2022-07-04T06:34:38;8.13;;;2.25;;
16426;SDS011;8322;-33.900;151.170;2022-07-04T06:37:26;14.10;;;2.38;;
16426;SDS011;8322;-33.900;151.170;2022-07-04T06:39:55;11.65;;;2.05;;
16426;SDS011;8322;-33.900;151.170;2022-07-04T06:42:25;9.95;;;2.08;;
16426;SDS011;8322;-33.900;151.170;2022-07-04T06:44:55;15.68;;;2.25;;
16426;SDS011;8322;-33.900;151.170;2022-07-04T06:47:24;13.45;;;2.13;;
16426;SDS011;8322;-33.900;151.170;2022-07-04T06:49:54;13.80;;;2.55;;
16426;SDS011;8322;-33.900;151.170;2022-07-04T06:52:26;9.90;;;1.90;;
16426;SDS011;8322;-33.900;151.170;2022-07-04T06:54:55;10.02;;;1.70;;
16426;SDS011;8322;-33.900;151.170;2022-07-04T06:57:26;11.77;;;2.00;;
16426;SDS011;8322;-33.900;151.170;2022-07-04T06:59:55;14.23;;;2.55;;
16426;SDS011;8322;-33.900;151.170;2022-07-04T07:02:25;8.45;;;2.15;;
16426;SDS011;8322;-33.900;151.170;2022-07-04T07:04:55;6.63;;;1.50;;
16426;SDS011;8322;-33.900;151.170;2022-07-04T07:07:27;7.15;;;1.73;;
16426;SDS011;8322;-33.900;151.170;2022-07-04T07:09:56;4.13;;;1.33;;
16426;SDS011;8322;-33.900;151.170;2022-07-04T07:12:27;11.20;;;2.05;;
16426;SDS011;8322;-33.900;151.170;2022-07-04T07:14:57;8.50;;;2.03;;
16426;SDS011;8322;-33.900;151.170;2022-07-04T07:17:26;9.13;;;2.40;;
16426;SDS011;8322;-33.900;151.170;2022-07-04T07:19:56;5.05;;;1.75;;
16426;SDS011;8322;-33.900;151.170;2022-07-04T07:22:28;5.28;;;1.35;;
16426;SDS011;8322;-33.900;151.170;2022-07-04T07:24:58;5.90;;;2.00;;
16426;SDS011;8322;-33.900;151.170;2022-07-04T07:27:28;11.32;;;2.38;;
16426;SDS011;8322;-33.900;151.170;2022-07-04T07:29:58;15.98;;;3.25;;
16426;SDS011;8322;-33.900;151.170;2022-07-04T07:32:27;15.15;;;2.70;;
16426;SDS011;8322;-33.900;151.170;2022-07-04T07:34:57;17.73;;;2.78;;
16426;SDS011;8322;-33.900;151.170;2022-07-04T07:37:29;20.90;;;2.90;;
16426;SDS011;8322;-33.900;151.170;2022-07-04T07:39:59;22.17;;;3.17;;
16426;SDS011;8322;-33.900;151.170;2022-07-04T07:42:30;22.00;;;3.65;;
16426;SDS011;8322;-33.900;151.170;2022-07-04T07:44:59;25.13;;;3.20;;
16426;SDS011;8322;-33.900;151.170;2022-07-04T07:47:29;16.10;;;2.85;;
16426;SDS011;8322;-33.900;151.170;2022-07-04T07:49:59;17.83;;;3.10;;
16426;SDS011;8322;-33.900;151.170;2022-07-04T07:52:31;14.25;;;2.97;;
16426;SDS011;8322;-33.900;151.170;2022-07-04T07:55:01;17.33;;;2.60;;
16426;SDS011;8322;-33.900;151.170;2022-07-04T07:57:31;18.10;;;3.08;;
16426;SDS011;8322;-33.900;151.170;2022-07-04T08:00:00;20.27;;;3.25;;
16426;SDS011;8322;-33.900;151.170;2022-07-04T08:02:30;23.25;;;3.00;;
16426;SDS011;8322;-33.900;151.170;2022-07-04T08:05:16;19.63;;;2.95;;
16426;SDS011;8322;-33.900;151.170;2022-07-04T08:07:48;20.02;;;3.15;;
16426;SDS011;8322;-33.900;151.170;2022-07-04T08:10:18;20.67;;;3.33;;
16426;SDS011;8322;-33.900;151.170;2022-07-04T08:12:47;11.88;;;2.20;;
16426;SDS011;8322;-33.900;151.170;2022-07-04T08:15:18;14.70;;;2.03;;
16426;SDS011;8322;-33.900;151.170;2022-07-04T08:17:47;12.20;;;2.13;;
16426;SDS011;8322;-33.900;151.170;2022-07-04T08:20:19;15.30;;;2.95;;
16426;SDS011;8322;-33.900;151.170;2022-07-04T08:22:50;14.88;;;2.40;;
16426;SDS011;8322;-33.900;151.170;2022-07-04T08:25:20;21.15;;;2.95;;
16426;SDS011;8322;-33.900;151.170;2022-07-04T08:27:50;20.63;;;2.78;;
16426;SDS011;8322;-33.900;151.170;2022-07-04T08:30:20;22.60;;;3.25;;
16426;SDS011;8322;-33.900;151.170;2022-07-04T08:32:56;20.00;;;3.25;;
16426;SDS011;8322;-33.900;151.170;2022-07-04T08:35:26;19.90;;;3.30;;
16426;SDS011;8322;-33.900;151.170;2022-07-04T08:37:58;21.48;;;3.15;;
16426;SDS011;8322;-33.900;151.170;2022-07-04T08:40:28;27.65;;;3.90;;
16426;SDS011;8322;-33.900;151.170;2022-07-04T08:43:00;23.67;;;3.40;;
16426;SDS011;8322;-33.900;151.170;2022-07-04T08:45:30;27.25;;;4.43;;
16426;SDS011;8322;-33.900;151.170;2022-07-04T08:48:00;30.73;;;4.57;;
16426;SDS011;8322;-33.900;151.170;2022-07-04T08:50:30;22.73;;;4.18;;
16426;SDS011;8322;-33.900;151.170;2022-07-04T08:53:03;20.38;;;3.45;;
16426;SDS011;8322;-33.900;151.170;2022-07-04T08:55:35;26.42;;;3.33;;
16426;SDS011;8322;-33.900;151.170;2022-07-04T08:58:22;25.83;;;3.78;;
16426;SDS011;8322;-33.900;151.170;2022-07-04T09:00:56;26.52;;;3.65;;
16426;SDS011;8322;-33.900;151.170;2022-07-04T09:03:26;26.88;;;4.75;;
16426;SDS011;8322;-33.900;151.170;2022-07-04T09:05:56;28.33;;;4.50;;
16426;SDS011;8322;-33.900;151.170;2022-07-04T09:08:28;21.17;;;3.63;;
16426;SDS011;8322;-33.900;151.170;2022-07-04T09:10:57;15.77;;;3.30;;
16426;SDS011;8322;-33.900;151.170;2022-07-04T09:13:28;19.58;;;2.97;;
16426;SDS011;8322;-33.900;151.170;2022-07-04T09:16:00;18.88;;;3.13;;
16426;SDS011;8322;-33.900;151.170;2022-07-04T09:18:30;26.13;;;3.72;;
16426;SDS011;8322;-33.900;151.170;2022-07-04T09:21:01;19.25;;;3.47;;
16426;SDS011;8322;-33.900;151.170;2022-07-04T09:23:34;24.55;;;3.17;;
16426;SDS011;8322;-33.900;151.170;2022-07-04T09:26:08;21.25;;;3.90;;
16426;SDS011;8322;-33.900;151.170;2022-07-04T09:28:38;18.60;;;3.00;;
16426;SDS011;8322;-33.900;151.170;2022-07-04T09:31:14;18.42;;;3.03;;
16426;SDS011;8322;-33.900;151.170;2022-07-04T09:33:45;21.17;;;3.40;;
16426;SDS011;8322;-33.900;151.170;2022-07-04T09:36:15;27.75;;;3.90;;
16426;SDS011;8322;-33.900;151.170;2022-07-04T09:38:48;20.42;;;4.45;;
16426;SDS011;8322;-33.900;151.170;2022-07-04T09:41:49;20.45;;;3.92;;
16426;SDS011;8322;-33.900;151.170;2022-07-04T09:44:19;19.13;;;3.78;;
16426;SDS011;8322;-33.900;151.170;2022-07-04T09:46:49;21.83;;;4.80;;
16426;SDS011;8322;-33.900;151.170;2022-07-04T09:49:20;27.10;;;4.10;;
16426;SDS011;8322;-33.900;151.170;2022-07-04T09:51:52;25.40;;;3.42;;
16426;SDS011;8322;-33.900;151.170;2022-07-04T09:54:24;21.05;;;3.63;;
16426;SDS011;8322;-33.900;151.170;2022-07-04T09:56:58;23.45;;;3.90;;
16426;SDS011;8322;-33.900;151.170;2022-07-04T09:59:28;24.83;;;4.15;;
16426;SDS011;8322;-33.900;151.170;2022-07-04T10:02:08;26.67;;;4.35;;
16426;SDS011;8322;-33.900;151.170;2022-07-04T10:04:44;20.60;;;4.38;;
16426;SDS011;8322;-33.900;151.170;2022-07-04T10:07:29;17.38;;;3.08;;
16426;SDS011;8322;-33.900;151.170;2022-07-04T10:10:01;22.55;;;3.65;;
16426;SDS011;8322;-33.900;151.170;2022-07-04T10:12:50;23.42;;;4.28;;
16426;SDS011;8322;-33.900;151.170;2022-07-04T10:15:19;16.75;;;3.75;;
16426;SDS011;8322;-33.900;151.170;2022-07-04T10:17:49;28.15;;;4.18;;
16426;SDS011;8322;-33.900;151.170;2022-07-04T10:20:19;18.17;;;3.30;;
16426;SDS011;8322;-33.900;151.170;2022-07-04T10:22:49;18.88;;;3.58;;
16426;SDS011;8322;-33.900;151.170;2022-07-04T10:25:20;23.17;;;4.85;;
16426;SDS011;8322;-33.900;151.170;2022-07-04T10:27:50;22.95;;;4.15;;
16426;SDS011;8322;-33.900;151.170;2022-07-04T10:30:21;18.35;;;3.28;;
16426;SDS011;8322;-33.900;151.170;2022-07-04T10:32:52;15.27;;;3.10;;
16426;SDS011;8322;-33.900;151.170;2022-07-04T10:38:06;20.80;;;3.38;;
16426;SDS011;8322;-33.900;151.170;2022-07-04T10:40:42;21.45;;;3.22;;
16426;SDS011;8322;-33.900;151.170;2022-07-04T10:48:48;14.63;;;2.42;;
16426;SDS011;8322;-33.900;151.170;2022-07-04T10:51:30;20.88;;;2.83;;
16426;SDS011;8322;-33.900;151.170;2022-07-04T10:54:01;22.52;;;4.05;;
16426;SDS011;8322;-33.900;151.170;2022-07-04T10:56:37;21.13;;;3.58;;
16426;SDS011;8322;-33.900;151.170;2022-07-04T10:59:11;15.23;;;3.15;;
16426;SDS011;8322;-33.900;151.170;2022-07-04T11:01:44;19.30;;;3.28;;
16426;SDS011;8322;-33.900;151.170;2022-07-04T11:06:58;18.73;;;3.25;;
16426;SDS011;8322;-33.900;151.170;2022-07-04T11:09:28;22.92;;;4.07;;
16426;SDS011;8322;-33.900;151.170;2022-07-04T11:12:00;25.83;;;3.88;;
16426;SDS011;8322;-33.900;151.170;2022-07-04T11:14:30;27.48;;;3.95;;
16426;SDS011;8322;-33.900;151.170;2022-07-04T11:17:00;18.95;;;2.92;;
16426;SDS011;8322;-33.900;151.170;2022-07-04T11:19:29;17.73;;;3.17;;
16426;SDS011;8322;-33.900;151.170;2022-07-04T11:21:59;22.38;;;3.60;;
16426;SDS011;8322;-33.900;151.170;2022-07-04T11:24:31;17.95;;;2.70;;
16426;SDS011;8322;-33.900;151.170;2022-07-04T11:27:03;19.10;;;3.38;;
16426;SDS011;8322;-33.900;151.170;2022-07-04T11:29:33;21.85;;;3.83;;
16426;SDS011;8322;-33.900;151.170;2022-07-04T11:32:03;29.75;;;4.07;;
16426;SDS011;8322;-33.900;151.170;2022-07-04T11:34:33;23.98;;;4.68;;
16426;SDS011;8322;-33.900;151.170;2022-07-04T11:37:03;30.75;;;3.92;;
16426;SDS011;8322;-33.900;151.170;2022-07-04T11:39:33;28.50;;;3.67;;
16426;SDS011;8322;-33.900;151.170;2022-07-04T11:42:05;27.08;;;3.67;;
16426;SDS011;8322;-33.900;151.170;2022-07-04T11:44:59;23.85;;;3.25;;
16426;SDS011;8322;-33.900;151.170;2022-07-04T11:47:32;22.20;;;2.97;;
16426;SDS011;8322;-33.900;151.170;2022-07-04T11:50:04;20.67;;;3.38;;
16426;SDS011;8322;-33.900;151.170;2022-07-04T11:52:43;21.73;;;3.22;;
16426;SDS011;8322;-33.900;151.170;2022-07-04T11:55:14;27.25;;;3.72;;
16426;SDS011;8322;-33.900;151.170;2022-07-04T11:57:48;17.85;;;2.78;;
16426;SDS011;8322;-33.900;151.170;2022-07-04T12:00:19;20.67;;;3.08;;
16426;SDS011;8322;-33.900;151.170;2022-07-04T12:02:49;23.83;;;3.17;;
16426;SDS011;8322;-33.900;151.170;2022-07-04T12:05:19;18.52;;;3.22;;
16426;SDS011;8322;-33.900;151.170;2022-07-04T12:07:48;20.10;;;3.30;;
16426;SDS011;8322;-33.900;151.170;2022-07-04T12:10:21;21.95;;;3.33;;
16426;SDS011;8322;-33.900;151.170;2022-07-04T12:12:53;27.42;;;3.60;;
16426;SDS011;8322;-33.900;151.170;2022-07-04T12:15:23;23.33;;;3.83;;
16426;SDS011;8322;-33.900;151.170;2022-07-04T12:17:53;26.25;;;3.88;;
16426;SDS011;8322;-33.900;151.170;2022-07-04T12:20:23;17.35;;;3.10;;
16426;SDS011;8322;-33.900;151.170;2022-07-04T12:22:54;19.17;;;2.70;;
16426;SDS011;8322;-33.900;151.170;2022-07-04T12:25:24;18.13;;;2.92;;
16426;SDS011;8322;-33.900;151.170;2022-07-04T12:27:57;24.40;;;3.22;;
16426;SDS011;8322;-33.900;151.170;2022-07-04T12:30:28;22.65;;;3.08;;
16426;SDS011;8322;-33.900;151.170;2022-07-04T12:32:58;19.98;;;2.90;;
16426;SDS011;8322;-33.900;151.170;2022-07-04T12:35:34;27.05;;;3.72;;
16426;SDS011;8322;-33.900;151.170;2022-07-04T12:38:04;25.48;;;4.10;;
16426;SDS011;8322;-33.900;151.170;2022-07-04T12:40:34;25.85;;;4.20;;
16426;SDS011;8322;-33.900;151.170;2022-07-04T12:43:06;25.33;;;3.75;;
16426;SDS011;8322;-33.900;151.170;2022-07-04T12:45:46;21.55;;;3.42;;
16426;SDS011;8322;-33.900;151.170;2022-07-04T12:48:19;27.58;;;4.13;;
16426;SDS011;8322;-33.900;151.170;2022-07-04T12:50:49;29.27;;;4.80;;
16426;SDS011;8322;-33.900;151.170;2022-07-04T12:53:19;32.53;;;4.80;;
16426;SDS011;8322;-33.900;151.170;2022-07-04T12:55:49;30.58;;;4.68;;
16426;SDS011;8322;-33.900;151.170;2022-07-04T12:58:21;27.00;;;4.38;;
16426;SDS011;8322;-33.900;151.170;2022-07-04T13:00:50;24.88;;;3.22;;
16426;SDS011;8322;-33.900;151.170;2022-07-04T13:03:20;17.95;;;3.30;;
16426;SDS011;8322;-33.900;151.170;2022-07-04T13:05:50;21.60;;;2.88;;
16426;SDS011;8322;-33.900;151.170;2022-07-04T13:08:20;18.60;;;3.10;;
16426;SDS011;8322;-33.900;151.170;2022-07-04T13:10:49;24.23;;;3.03;;
16426;SDS011;8322;-33.900;151.170;2022-07-04T13:13:41;19.52;;;2.90;;
16426;SDS011;8322;-33.900;151.170;2022-07-04T13:16:11;23.83;;;3.65;;
16426;SDS011;8322;-33.900;151.170;2022-07-04T13:18:41;27.05;;;3.92;;
16426;SDS011;8322;-33.900;151.170;2022-07-04T13:21:10;21.55;;;4.30;;
16426;SDS011;8322;-33.900;151.170;2022-07-04T13:23:40;29.63;;;4.15;;
16426;SDS011;8322;-33.900;151.170;2022-07-04T13:26:10;25.83;;;3.90;;
16426;SDS011;8322;-33.900;151.170;2022-07-04T13:28:41;25.17;;;3.25;;
16426;SDS011;8322;-33.900;151.170;2022-07-04T13:31:11;22.23;;;3.55;;
16426;SDS011;8322;-33.900;151.170;2022-07-04T13:33:41;26.70;;;3.35;;
16426;SDS011;8322;-33.900;151.170;2022-07-04T13:36:11;27.40;;;3.25;;
16426;SDS011;8322;-33.900;151.170;2022-07-04T13:38:41;28.08;;;3.28;;
16426;SDS011;8322;-33.900;151.170;2022-07-04T13:41:10;23.05;;;3.10;;
16426;SDS011;8322;-33.900;151.170;2022-07-04T13:43:42;18.73;;;2.80;;
16426;SDS011;8322;-33.900;151.170;2022-07-04T13:46:12;19.45;;;3.00;;
16426;SDS011;8322;-33.900;151.170;2022-07-04T13:48:41;18.92;;;2.50;;
16426;SDS011;8322;-33.900;151.170;2022-07-04T13:51:11;29.67;;;3.97;;
16426;SDS011;8322;-33.900;151.170;2022-07-04T13:53:41;26.63;;;3.55;;
16426;SDS011;8322;-33.900;151.170;2022-07-04T13:56:10;21.02;;;3.10;;
16426;SDS011;8322;-33.900;151.170;2022-07-04T13:58:45;27.02;;;3.30;;
16426;SDS011;8322;-33.900;151.170;2022-07-04T14:01:16;29.88;;;3.90;;
16426;SDS011;8322;-33.900;151.170;2022-07-04T14:03:46;23.45;;;3.75;;
16426;SDS011;8322;-33.900;151.170;2022-07-04T14:06:16;27.98;;;4.20;;
16426;SDS011;8322;-33.900;151.170;2022-07-04T14:08:46;29.95;;;4.40;;
16426;SDS011;8322;-33.900;151.170;2022-07-04T14:11:16;27.67;;;4.38;;
16426;SDS011;8322;-33.900;151.170;2022-07-04T14:13:47;23.67;;;3.50;;
16426;SDS011;8322;-33.900;151.170;2022-07-04T14:16:17;27.02;;;3.90;;
16426;SDS011;8322;-33.900;151.170;2022-07-04T14:18:47;21.10;;;3.53;;
16426;SDS011;8322;-33.900;151.170;2022-07-04T14:21:16;21.02;;;3.15;;
16426;SDS011;8322;-33.900;151.170;2022-07-04T14:23:46;17.35;;;3.13;;
16426;SDS011;8322;-33.900;151.170;2022-07-04T14:26:17;23.92;;;3.50;;
16426;SDS011;8322;-33.900;151.170;2022-07-04T14:28:52;21.35;;;3.05;;
16426;SDS011;8322;-33.900;151.170;2022-07-04T14:31:22;24.42;;;3.20;;
16426;SDS011;8322;-33.900;151.170;2022-07-04T14:33:52;30.35;;;3.63;;
16426;SDS011;8322;-33.900;151.170;2022-07-04T14:36:22;25.13;;;3.88;;
16426;SDS011;8322;-33.900;151.170;2022-07-04T14:38:51;26.75;;;3.40;;
16426;SDS011;8322;-33.900;151.170;2022-07-04T14:41:21;21.70;;;3.03;;